Aérodrome :
LOGIN :

S'inscrire | Disclaimer

   EN    FR    IT 

 










Légende :    VFR   VFR Marginal   IFR   IFR Intensif   IFR Très Intensif
Visi : 
Plafond : 
>= 8 km
>= 3000ft
5 à 8 km
1000 à 3000 ft
1500m à 5 km
500 à 1000 ft
800 à 1500m
200 à 500 ft
< 800m
< 200 ft
Symboles :   Orages  Brouillard  Fortes neiges  Fortes précipitations  Vent > 20 kt
SIGMETs :   Divers  Orages  Givrage  Turbulence  Onde Orograph.  Cendres Volcan.






- Altitude de l'aérodrome : 1895 ft


LSMM - Meiringen

DERNIER METAR :
  • 041250Z VRB02KT 9999 FEW180 16/10 Q1023 RMK BLU+

METARs EXPIRÉS :
  • 041220Z 21003KT 9999 SCT190 15/08 Q1024 RMK BLU+
  • 041150Z VRB03KT 9999 BKN230 15/09 Q1024 RMK BLU+
  • 041120Z 19003KT 120V240 9999 BKN210 15/09 Q1024 RMK BLU+
  • 041050Z AUTO 23004KT 9999NDV FEW170 14/09 Q1024 RMK
  • 041020Z AUTO 26003KT 200V320 9999NDV NCD 14/09 Q1024 RMK
  • 040950Z 23003KT 180V260 9999 FEW190 13/09 Q1024 RMK BLU+

Prévision TAF périmée.



MET'MAP, la Météo Aéronautique d'un coup d'oeil ! - Copyright ORBIFLY Décembre 2007 - Disclaimer

ORBIFLY MET'MAP TEAM :

Programmation & Développement : Alexandra Zaïnal
Sur une idée originale de : Baudouin d'Aumeries
Soutien technique & logistique : Manuel Goepfert
Assistance : Marc-Olivier Méhu




SOURCES & CREDITS :

   NOAA